Time;durP1;ratioP1;P1;durP2;ratioP2;P2;SDS_P1;SDS_P2;PMS_P1;PMS_P2;Temp;Humidity;BMP_temperature;BMP_pressure;BME280_temperature;BME280_humidity;BME280_pressure;Samples;Min_cycle;Max_cycle;Signal;HPM_P1;HPM_P2
2023/03/23 00:00:08;;;;;;;;;1.25;1.25;;;;;14.89;68.42;100265.97;6250797;22;45446;-69
2023/03/23 00:02:37;;;;;;;;;2.00;1.00;;;;;14.74;68.41;100242.66;6278435;22;45251;-70
2023/03/23 00:05:04;;;;;;;;;1.00;1.00;;;;;14.87;68.46;100281.31;6277257;22;45382;-69
2023/03/23 00:07:29;;;;;;;;;3.00;1.00;;;;;15.04;68.28;100282.16;6277974;22;45295;-69
2023/03/23 00:09:55;;;;;;;;;5.00;2.25;;;;;15.05;68.29;100286.56;6278169;22;45323;-70
2023/03/23 00:12:32;;;;;;;;;1.25;1.25;;;;;15.04;68.74;100285.69;6277880;22;45252;-69
2023/03/23 00:15:03;;;;;;;;;1.50;1.50;;;;;15.01;68.55;100284.03;6277103;22;46231;-69
2023/03/23 00:17:29;;;;;;;;;1.00;1.00;;;;;15.01;68.48;100278.66;6277868;22;45353;-69
2023/03/23 00:19:55;;;;;;;;;1.00;1.00;;;;;14.81;68.44;100244.03;6250342;22;45347;-70
2023/03/23 00:22:21;;;;;;;;;2.00;2.00;;;;;15.00;68.23;100276.06;6277422;22;45414;-70
2023/03/23 00:24:50;;;;;;;;;2.75;1.00;;;;;14.77;67.95;100229.91;6274777;22;47002;-70
2023/03/23 00:27:15;;;;;;;;;2.50;0.50;;;;;14.73;68.41;100219.44;6248011;22;45508;-70
2023/03/23 00:29:42;;;;;;;;;1.25;0.75;;;;;14.98;68.03;100272.63;6276586;22;45402;-70
2023/03/23 00:32:13;;;;;;;;;1.25;1.00;;;;;14.87;67.92;100251.75;6250330;22;45537;-70
2023/03/23 00:34:40;;;;;;;;;1.00;1.00;;;;;14.77;68.17;100253.25;6277496;22;45323;-70
2023/03/23 00:37:07;;;;;;;;;1.75;1.75;;;;;14.84;68.07;100267.19;6277645;22;45273;-70
2023/03/23 00:39:33;;;;;;;;;1.00;1.00;;;;;14.85;67.84;100266.22;6278235;22;45323;-70
2023/03/23 00:42:00;;;;;;;;;0.00;0.00;;;;;14.62;68.16;100239.72;6250136;22;45453;-70
2023/03/23 00:44:28;;;;;;;;;1.00;1.00;;;;;14.77;68.31;100261.31;6277913;22;45433;-70
2023/03/23 00:46:56;;;;;;;;;0.25;0.25;;;;;14.74;68.03;100254.28;6277553;22;45477;-69
2023/03/23 00:49:26;;;;;;;;;1.00;1.00;;;;;14.61;68.13;100229.06;6278100;22;45301;-69
2023/03/23 00:51:56;;;;;;;;;1.00;1.00;;;;;14.59;68.26;100212.19;6277910;22;45344;-70
2023/03/23 00:54:23;;;;;;;;;1.75;1.75;;;;;14.68;68.20;100222.38;6249477;22;46919;-70
2023/03/23 00:56:49;;;;;;;;;1.00;1.00;;;;;14.76;68.16;100230.88;6277154;22;45577;-70
2023/03/23 00:59:14;;;;;;;;;1.00;1.00;;;;;14.67;68.18;100236.78;6277640;22;45281;-70
2023/03/23 01:01:40;;;;;;;;;4.00;1.00;;;;;14.61;67.85;100223.69;6277604;22;45365;-70
2023/03/23 01:04:06;;;;;;;;;1.50;1.00;;;;;14.85;68.37;100260.84;6277585;22;46129;-70
2023/03/23 01:06:35;;;;;;;;;1.75;1.00;;;;;14.50;68.20;100199.22;6250090;22;45327;-70
2023/03/23 01:09:03;;;;;;;;;1.00;1.00;;;;;14.57;68.55;100220.28;6278132;22;45343;-70
2023/03/23 01:11:29;;;;;;;;;1.25;1.25;;;;;14.55;68.20;100213.25;6277262;22;45251;-70
2023/03/23 01:13:55;;;;;;;;;2.00;2.00;;;;;14.53;68.55;100224.09;6277491;22;46530;-70
2023/03/23 01:16:21;;;;;;;;;4.00;2.00;;;;;14.79;68.62;100271.00;6249901;22;45336;-70
2023/03/23 01:18:47;;;;;;;;;2.00;1.00;;;;;14.59;68.49;100242.59;6277873;22;45331;-70
2023/03/23 01:21:15;;;;;;;;;5.75;2.00;;;;;14.41;68.61;100204.16;6277698;22;45457;-69
2023/03/23 01:23:41;;;;;;;;;1.00;1.00;;;;;14.53;68.66;100220.53;6276171;22;46291;-70
2023/03/23 01:26:09;;;;;;;;;2.00;2.00;;;;;14.78;68.91;100234.34;6275734;22;45263;-70
2023/03/23 01:28:35;;;;;;;;;1.50;1.25;;;;;14.79;68.92;100252.19;6277668;22;45318;-70
2023/03/23 01:31:03;;;;;;;;;1.50;1.50;;;;;14.71;68.79;100243.69;6277584;22;45379;-70
2023/03/23 01:33:30;;;;;;;;;1.00;1.00;;;;;14.57;68.61;100225.66;6277260;22;45313;-70
2023/03/23 01:35:55;;;;;;;;;1.00;1.00;;;;;14.39;69.03;100198.03;6276837;22;45256;-70
2023/03/23 01:38:21;;;;;;;;;3.50;2.00;;;;;14.33;69.44;100189.47;6277085;22;45181;-70
2023/03/23 01:40:46;;;;;;;;;1.75;1.75;;;;;14.56;69.45;100223.91;6276080;22;45269;-70
2023/03/23 01:43:14;;;;;;;;;2.00;2.00;;;;;14.53;69.39;100223.22;6277377;22;45399;-70
2023/03/23 01:45:40;;;;;;;;;2.00;1.00;;;;;14.42;69.30;100202.38;6277540;22;45366;-70
2023/03/23 01:48:23;;;;;;;;;1.00;1.00;;;;;14.54;69.01;100227.66;6249779;22;45501;-70
2023/03/23 01:51:00;;;;;;;;;1.00;1.00;;;;;14.59;69.48;100209.50;6277340;22;45350;-69
2023/03/23 01:53:30;;;;;;;;;1.00;1.00;;;;;14.41;69.18;100182.69;6277150;22;45925;-70
2023/03/23 01:55:58;;;;;;;;;1.00;1.00;;;;;14.38;69.38;100177.53;6277872;22;45466;-69
2023/03/23 01:58:27;;;;;;;;;1.25;1.00;;;;;14.32;69.24;100150.16;6277249;22;45260;-70
2023/03/23 02:01:00;;;;;;;;;1.50;1.50;;;;;14.34;69.24;100154.47;6277488;22;45510;-70
2023/03/23 02:03:28;;;;;;;;;1.00;1.00;;;;;14.35;69.34;100163.38;6249389;22;47378;-70
2023/03/23 02:05:58;;;;;;;;;0.00;0.00;;;;;14.45;69.18;100180.72;6277570;22;45528;-69
2023/03/23 02:08:26;;;;;;;;;1.00;1.00;;;;;14.61;69.33;100194.16;6275696;22;45332;-70
2023/03/23 02:10:55;;;;;;;;;1.00;1.00;;;;;14.42;69.26;100167.47;6277135;22;45496;-70
2023/03/23 02:13:21;;;;;;;;;1.00;1.00;;;;;14.44;69.38;100160.19;6276794;22;46250;-69
2023/03/23 02:16:08;;;;;;;;;0.75;0.75;;;;;14.62;69.52;100195.88;6250005;22;45662;-70
2023/03/23 02:19:11;;;;;;;;;1.00;1.00;;;;;14.24;69.42;100154.13;6275623;22;45296;-70
2023/03/23 02:21:44;;;;;;;;;1.25;0.25;;;;;14.49;69.49;100211.81;6277718;22;45716;-69
2023/03/23 02:24:19;;;;;;;;;1.50;1.50;;;;;14.56;69.60;100228.44;6276598;22;46442;-70
2023/03/23 02:27:05;;;;;;;;;1.00;1.00;;;;;14.50;69.63;100232.34;6277025;22;45453;-70
2023/03/23 02:29:49;;;;;;;;;1.00;1.00;;;;;14.53;69.60;100242.88;6248624;22;45375;-70
2023/03/23 02:33:01;;;;;;;;;1.00;1.00;;;;;14.54;69.71;100243.78;6277642;22;45397;-70
2023/03/23 02:35:52;;;;;;;;;3.00;3.00;;;;;14.50;69.85;100237.72;6260181;22;45963;-69
2023/03/23 02:38:31;;;;;;;;;1.50;1.50;;;;;14.29;69.46;100194.16;6249790;22;45259;-70
2023/03/23 02:41:01;;;;;;;;;1.25;1.25;;;;;14.46;69.30;100234.31;6277716;22;45344;-69
2023/03/23 02:43:32;;;;;;;;;1.50;1.00;;;;;14.30;69.55;100209.31;6276898;22;45174;-70
2023/03/23 02:45:58;;;;;;;;;1.00;1.00;;;;;14.43;69.43;100242.56;6277016;22;45453;-69
2023/03/23 02:48:29;;;;;;;;;1.00;1.00;;;;;14.44;69.63;100232.69;6276998;22;45295;-70
2023/03/23 02:50:56;;;;;;;;;1.25;1.25;;;;;14.16;69.36;100190.41;6278246;22;45330;-70
2023/03/23 02:53:26;;;;;;;;;1.25;1.25;;;;;14.21;69.51;100189.19;6278038;22;45396;-70
2023/03/23 02:55:54;;;;;;;;;1.00;1.00;;;;;14.41;69.52;100214.91;6278601;22;46245;-70
2023/03/23 02:58:21;;;;;;;;;1.00;1.00;;;;;14.50;69.23;100215.34;6277631;22;45554;-70
2023/03/23 03:00:49;;;;;;;;;2.00;2.00;;;;;14.25;69.59;100195.28;6250597;22;45448;-70
2023/03/23 03:03:21;;;;;;;;;1.75;1.75;;;;;14.51;69.48;100231.38;6278233;22;45423;-70
2023/03/23 03:06:10;;;;;;;;;2.50;1.00;;;;;14.53;69.35;100226.78;6277868;22;45276;-69
2023/03/23 03:08:45;;;;;;;;;1.00;1.00;;;;;14.57;69.22;100228.34;6247277;22;45406;-69
2023/03/23 03:11:13;;;;;;;;;3.00;1.00;;;;;14.57;69.27;100217.59;6278084;22;45342;-70
2023/03/23 03:13:48;;;;;;;;;1.00;1.00;;;;;14.63;69.24;100221.78;6277963;22;45533;-69
2023/03/23 03:16:35;;;;;;;;;1.00;1.00;;;;;14.63;69.14;100203.88;6250414;22;47213;-69
2023/03/23 03:19:13;;;;;;;;;1.25;1.25;;;;;14.66;68.92;100202.81;6249695;22;45486;-70
2023/03/23 03:21:42;;;;;;;;;2.00;1.50;;;;;14.59;68.95;100183.50;6278635;22;45285;-70
2023/03/23 03:24:12;;;;;;;;;0.50;0.50;;;;;14.58;68.91;100197.88;6278086;22;45523;-69
2023/03/23 03:26:47;;;;;;;;;1.00;1.00;;;;;14.65;69.13;100206.47;6278204;22;46070;-70
2023/03/23 03:29:20;;;;;;;;;1.00;1.00;;;;;14.55;69.09;100189.09;6250143;22;45751;-70
2023/03/23 03:31:48;;;;;;;;;1.00;1.00;;;;;14.53;68.79;100191.84;6250986;22;45467;-70
2023/03/23 03:34:17;;;;;;;;;1.50;1.50;;;;;14.62;69.10;100218.25;6277112;22;45268;-69
2023/03/23 03:36:45;;;;;;;;;1.00;1.00;;;;;14.62;69.34;100217.38;6250630;22;47007;-70
2023/03/23 03:39:12;;;;;;;;;2.00;1.00;;;;;14.35;69.23;100180.38;6278114;22;45370;-69
2023/03/23 03:41:38;;;;;;;;;2.00;2.00;;;;;14.34;68.90;100170.59;6278127;22;45343;-69
2023/03/23 03:44:05;;;;;;;;;2.00;0.25;;;;;14.60;69.35;100203.16;6249834;22;45485;-69
2023/03/23 03:46:31;;;;;;;;;2.00;1.00;;;;;14.28;69.39;100160.19;6277783;22;46389;-69
2023/03/23 03:49:02;;;;;;;;;1.50;1.50;;;;;14.54;69.35;100206.19;6278072;22;45461;-70
2023/03/23 03:51:29;;;;;;;;;1.00;1.00;;;;;14.56;69.10;100206.94;6278174;22;45324;-69
2023/03/23 03:53:54;;;;;;;;;1.00;1.00;;;;;14.32;69.57;100160.91;6277732;22;45256;-70
2023/03/23 03:56:21;;;;;;;;;1.25;1.25;;;;;14.43;69.54;100188.88;6276053;22;46279;-69
2023/03/23 03:58:48;;;;;;;;;2.00;2.00;;;;;14.42;69.51;100178.22;6278213;22;45325;-70
2023/03/23 04:01:15;;;;;;;;;3.00;1.50;;;;;14.64;69.91;100207.41;6278184;22;45227;-70
2023/03/23 04:03:41;;;;;;;;;2.50;1.50;;;;;14.71;69.56;100219.50;6250112;22;45303;-69
2023/03/23 04:06:08;;;;;;;;;1.00;1.00;;;;;14.66;70.08;100210.00;6278134;22;46103;-69
2023/03/23 04:08:33;;;;;;;;;2.00;1.50;;;;;14.71;70.24;100227.56;6249783;22;45498;-69
2023/03/23 04:10:59;;;;;;;;;1.00;1.00;;;;;14.43;70.03;100182.59;6277875;22;45422;-70
2023/03/23 04:13:25;;;;;;;;;2.00;2.00;;;;;14.53;69.82;100194.53;6250344;22;45710;-69
2023/03/23 04:15:50;;;;;;;;;3.00;3.00;;;;;14.62;70.22;100212.00;6277940;22;46083;-69
2023/03/23 04:18:17;;;;;;;;;1.25;1.25;;;;;14.70;70.49;100228.56;6277833;22;45325;-69
2023/03/23 04:20:47;;;;;;;;;1.00;1.00;;;;;14.67;70.35;100234.09;6277835;22;45266;-69
2023/03/23 04:23:19;;;;;;;;;1.25;1.25;;;;;14.62;70.32;100220.06;6278278;22;45299;-70
2023/03/23 04:25:53;;;;;;;;;1.00;1.00;;;;;14.64;70.12;100232.44;6277636;22;45697;-69
2023/03/23 04:28:18;;;;;;;;;4.00;2.50;;;;;14.61;70.27;100224.56;6277392;22;45447;-70
2023/03/23 04:30:48;;;;;;;;;1.00;1.00;;;;;14.64;70.13;100226.22;6278072;22;45499;-69
2023/03/23 04:33:14;;;;;;;;;1.00;1.00;;;;;14.66;70.22;100245.78;6277557;22;45485;-69
2023/03/23 04:35:41;;;;;;;;;2.00;2.00;;;;;14.67;69.92;100231.41;6276798;22;46420;-69
2023/03/23 04:38:07;;;;;;;;;2.00;0.00;;;;;14.46;70.07;100218.19;6249934;22;45283;-69
2023/03/23 04:40:36;;;;;;;;;1.00;1.00;;;;;14.42;69.97;100205.06;6278288;22;45263;-69
2023/03/23 04:43:05;;;;;;;;;1.50;1.50;;;;;14.46;70.11;100207.47;6277520;22;45364;-70
2023/03/23 04:45:32;;;;;;;;;2.00;2.00;;;;;14.48;69.91;100217.25;6277624;22;45327;-69
2023/03/23 04:47:57;;;;;;;;;1.00;1.00;;;;;14.45;69.90;100227.22;6277880;22;45212;-69
2023/03/23 04:50:26;;;;;;;;;1.00;1.00;;;;;14.42;69.62;100226.53;6277922;22;45236;-70
2023/03/23 04:52:53;;;;;;;;;1.00;1.00;;;;;14.63;69.92;100267.44;6249592;22;45728;-69
2023/03/23 04:55:20;;;;;;;;;2.25;1.00;;;;;14.43;69.79;100239.88;6277109;22;45326;-69
2023/03/23 04:57:47;;;;;;;;;1.00;1.00;;;;;14.44;69.67;100228.16;6277490;22;45269;-70
2023/03/23 05:00:14;;;;;;;;;2.00;1.50;;;;;14.49;69.94;100243.19;6277392;22;45352;-69
2023/03/23 05:02:40;;;;;;;;;1.00;1.00;;;;;14.53;69.90;100250.09;6249810;22;45331;-69
2023/03/23 05:05:11;;;;;;;;;3.00;2.00;;;;;14.34;69.94;100215.38;6277522;22;45410;-69
2023/03/23 05:07:38;;;;;;;;;1.75;1.00;;;;;14.56;70.08;100247.22;6277419;22;45176;-69
2023/03/23 05:10:05;;;;;;;;;2.00;1.00;;;;;14.32;69.50;100203.84;6278016;22;45288;-69
2023/03/23 05:12:30;;;;;;;;;1.50;1.00;;;;;14.44;69.90;100230.00;6277280;22;45236;-69
2023/03/23 05:14:56;;;;;;;;;3.00;1.00;;;;;14.40;69.64;100220.38;6275630;22;47179;-70
2023/03/23 05:17:23;;;;;;;;;0.75;0.75;;;;;14.52;69.50;100254.59;6277419;22;45255;-69
2023/03/23 05:19:50;;;;;;;;;3.50;0.25;;;;;14.58;69.60;100267.69;6278123;22;45332;-70
2023/03/23 05:22:16;;;;;;;;;1.00;1.00;;;;;14.51;69.69;100246.63;6277729;22;45410;-69
2023/03/23 05:24:42;;;;;;;;;0.50;0.50;;;;;14.39;69.70;100238.31;6277457;22;46196;-69
2023/03/23 05:27:11;;;;;;;;;1.50;1.50;;;;;14.30;69.51;100221.84;6277328;22;45223;-70
2023/03/23 05:29:37;;;;;;;;;2.00;0.00;;;;;14.36;69.57;100227.75;6277878;22;45353;-70
2023/03/23 05:32:04;;;;;;;;;1.25;1.25;;;;;14.49;69.38;100251.22;6250237;22;45453;-70
2023/03/23 05:34:32;;;;;;;;;1.25;1.00;;;;;14.30;69.47;100230.78;6276749;22;46215;-69
2023/03/23 05:36:59;;;;;;;;;1.00;0.00;;;;;14.24;69.65;100215.00;6250090;22;45454;-70
2023/03/23 05:39:25;;;;;;;;;1.50;0.50;;;;;14.14;70.16;100201.25;6277431;22;45321;-69
2023/03/23 05:41:51;;;;;;;;;1.00;1.00;;;;;14.51;70.05;100266.28;6250062;22;46143;-70
2023/03/23 05:44:16;;;;;;;;;1.25;1.25;;;;;14.49;70.42;100264.66;6277727;22;45400;-70
2023/03/23 05:46:43;;;;;;;;;1.00;1.00;;;;;14.21;70.43;100240.19;6277768;22;45300;-70
2023/03/23 05:49:08;;;;;;;;;1.00;1.00;;;;;14.38;70.91;100250.03;6277871;22;45415;-70
2023/03/23 05:51:34;;;;;;;;;1.00;1.00;;;;;14.41;70.90;100257.88;6277661;22;45335;-70
2023/03/23 05:54:00;;;;;;;;;1.00;1.00;;;;;14.33;70.98;100233.28;6276843;22;46104;-70
2023/03/23 05:56:25;;;;;;;;;2.00;2.00;;;;;14.44;71.11;100256.84;6276991;22;45215;-70
2023/03/23 05:58:52;;;;;;;;;1.00;1.00;;;;;14.32;71.45;100242.31;6277466;22;45303;-70
2023/03/23 06:01:18;;;;;;;;;1.00;1.00;;;;;14.08;71.51;100209.63;6277342;22;45268;-70
2023/03/23 06:03:44;;;;;;;;;1.50;1.50;;;;;14.41;71.54;100260.56;6249432;22;46589;-70
2023/03/23 06:06:12;;;;;;;;;2.50;1.50;;;;;14.25;71.41;100232.88;6277507;22;45264;-70
2023/03/23 06:08:39;;;;;;;;;1.00;1.00;;;;;14.09;71.66;100222.97;6249669;22;45488;-70
2023/03/23 06:11:04;;;;;;;;;1.00;1.00;;;;;14.39;71.91;100265.16;6276902;22;45252;-70
2023/03/23 06:13:31;;;;;;;;;1.00;1.00;;;;;14.32;71.92;100246.81;6277093;22;45248;-70
2023/03/23 06:15:57;;;;;;;;;2.00;1.00;;;;;14.40;72.01;100274.06;6277482;22;45498;-70
2023/03/23 06:18:23;;;;;;;;;3.00;2.00;;;;;14.01;72.26;100197.50;6277619;22;45258;-70
2023/03/23 06:20:49;;;;;;;;;1.00;1.00;;;;;14.43;72.29;100272.09;6277450;22;45239;-70
2023/03/23 06:23:15;;;;;;;;;3.75;2.00;;;;;14.03;72.06;100203.66;6249161;22;46947;-70
2023/03/23 06:25:40;;;;;;;;;2.50;1.50;;;;;14.30;72.35;100243.31;6276793;22;45358;-70
2023/03/23 06:28:06;;;;;;;;;1.25;1.25;;;;;14.39;72.55;100265.16;6277168;22;45236;-70
2023/03/23 06:30:31;;;;;;;;;2.50;2.00;;;;;14.13;72.37;100228.16;6274190;22;45614;-70
2023/03/23 06:32:57;;;;;;;;;1.25;1.25;;;;;14.40;72.84;100274.97;6277408;22;45336;-70
2023/03/23 06:35:23;;;;;;;;;2.00;1.00;;;;;14.36;72.74;100276.06;6275395;22;45422;-67
2023/03/23 06:37:48;;;;;;;;;1.00;1.00;;;;;14.37;72.96;100280.50;6249071;22;45459;-66
2023/03/23 06:40:14;;;;;;;;;2.00;2.00;;;;;14.34;72.73;100283.34;6273986;22;45302;-66
2023/03/23 06:42:39;;;;;;;;;2.00;2.00;;;;;14.36;72.79;100278.75;6277036;22;46309;-67
2023/03/23 06:45:05;;;;;;;;;2.00;2.00;;;;;14.40;73.05;100285.69;6249516;22;45552;-66
2023/03/23 06:47:30;;;;;;;;;3.00;1.25;;;;;14.38;72.85;100287.63;6276462;22;45379;-66
2023/03/23 06:49:57;;;;;;;;;2.50;2.00;;;;;14.30;73.00;100275.53;6276673;22;45262;-66
2023/03/23 06:52:24;;;;;;;;;2.00;2.00;;;;;14.39;72.83;100297.38;6276569;22;47012;-66
2023/03/23 06:54:50;;;;;;;;;3.00;3.00;;;;;14.33;73.13;100286.97;6277313;22;45451;-66
2023/03/23 06:57:16;;;;;;;;;2.00;2.00;;;;;14.38;73.37;100313.56;6276032;22;45360;-67
2023/03/23 06:59:42;;;;;;;;;3.75;2.00;;;;;14.37;73.45;100310.03;6275377;22;46096;-66
2023/03/23 07:02:13;;;;;;;;;2.75;2.00;;;;;14.39;73.21;100320.69;6277030;22;46404;-66
2023/03/23 07:04:40;;;;;;;;;4.25;2.25;;;;;14.34;73.25;100310.19;6276295;22;45236;-66
2023/03/23 07:07:07;;;;;;;;;3.50;2.25;;;;;14.39;73.59;100334.13;6276246;22;45312;-67
2023/03/23 07:09:32;;;;;;;;;3.25;3.25;;;;;14.39;73.40;100323.38;6248943;22;45967;-66
2023/03/23 07:11:58;;;;;;;;;3.00;3.00;;;;;14.38;73.25;100317.16;6276705;22;45420;-66
2023/03/23 07:14:23;;;;;;;;;2.50;2.50;;;;;14.42;73.47;100326.75;6275066;22;47531;-66
2023/03/23 07:16:49;;;;;;;;;3.50;3.50;;;;;14.38;73.07;100322.53;6274342;22;45616;-66
2023/03/23 07:19:15;;;;;;;;;3.00;1.50;;;;;14.39;73.12;100312.63;6275700;22;45388;-66
2023/03/23 07:21:40;;;;;;;;;2.25;2.25;;;;;14.43;72.75;100309.69;6275048;22;45937;-66
2023/03/23 07:24:21;;;;;;;;;;;;;;;;;;;;;
2023/03/23 07:26:52;;;;;;;;;2.00;2.00;;;;;14.11;72.97;100289.97;6275122;22;69174;-69
2023/03/23 07:29:21;;;;;;;;;2.75;2.00;;;;;14.37;72.59;100320.78;6246885;22;45471;-68
2023/03/23 07:31:46;;;;;;;;;2.00;2.00;;;;;14.30;72.73;100308.66;6273262;22;45370;-70
2023/03/23 07:34:12;;;;;;;;;5.00;4.00;;;;;14.13;72.61;100274.66;6274158;22;45267;-69
2023/03/23 07:36:37;;;;;;;;;2.00;2.00;;;;;14.23;72.45;100297.38;6276530;22;45383;-68
2023/03/23 07:39:05;;;;;;;;;5.75;3.25;;;;;14.44;72.54;100330.22;6277287;22;45561;-68
2023/03/23 07:41:31;;;;;;;;;2.75;2.75;;;;;14.42;72.16;100320.53;6246477;22;48368;-69
2023/03/23 07:43:57;;;;;;;;;4.00;3.00;;;;;14.44;72.47;100326.66;6248854;22;45426;-69
2023/03/23 07:46:23;;;;;;;;;2.00;2.00;;;;;14.32;72.20;100313.94;6277606;22;45197;-70
2023/03/23 07:48:48;;;;;;;;;2.00;2.00;;;;;14.51;71.65;100356.75;6277361;22;45339;-69
2023/03/23 07:51:16;;;;;;;;;3.25;3.25;;;;;14.39;71.85;100345.72;6276806;22;45428;-69
2023/03/23 07:53:44;;;;;;;;;4.25;2.75;;;;;14.43;71.89;100341.03;6277440;22;45277;-69
2023/03/23 07:56:14;;;;;;;;;3.75;2.75;;;;;14.46;71.55;100357.84;6277118;22;45321;-69
2023/03/23 07:58:41;;;;;;;;;3.00;3.00;;;;;14.41;71.62;100341.13;6249403;22;45674;-69
2023/03/23 08:01:07;;;;;;;;;2.00;2.00;;;;;14.40;71.50;100336.72;6277770;22;46157;-68
2023/03/23 08:03:32;;;;;;;;;3.00;2.00;;;;;14.37;71.31;100331.50;6277397;22;45431;-69
2023/03/23 08:05:59;;;;;;;;;5.00;3.25;;;;;14.41;71.46;100349.19;6278200;22;45645;-69
2023/03/23 08:08:25;;;;;;;;;4.75;2.00;;;;;14.41;71.12;100348.31;6277255;22;45374;-69
2023/03/23 08:10:50;;;;;;;;;3.00;3.00;;;;;14.27;70.97;100322.22;6276478;22;45457;-69
2023/03/23 08:13:16;;;;;;;;;2.00;2.00;;;;;14.11;71.28;100300.72;6273075;22;45630;-69
2023/03/23 08:15:41;;;;;;;;;6.75;3.00;;;;;14.23;70.81;100329.59;6249194;22;45292;-69
2023/03/23 08:18:07;;;;;;;;;2.00;2.00;;;;;14.36;70.76;100351.25;6276037;22;45446;-69
2023/03/23 08:20:33;;;;;;;;;2.00;2.00;;;;;14.33;71.04;100351.41;6275922;22;45319;-69
2023/03/23 08:22:59;;;;;;;;;1.00;1.00;;;;;14.43;70.88;100351.78;6277060;22;45305;-69
2023/03/23 08:25:25;;;;;;;;;2.25;2.25;;;;;14.41;70.81;100359.06;6249668;22;45343;-69
2023/03/23 08:27:52;;;;;;;;;3.00;3.00;;;;;14.25;70.76;100318.78;6276631;22;45522;-69
2023/03/23 08:30:19;;;;;;;;;1.75;1.75;;;;;14.52;70.52;100367.41;6277647;22;45394;-69
2023/03/23 08:32:46;;;;;;;;;1.25;1.00;;;;;14.56;70.27;100360.91;6277292;22;45256;-69
2023/03/23 08:35:14;;;;;;;;;2.00;2.00;;;;;14.52;69.94;100345.91;6276564;22;45299;-69
2023/03/23 08:37:41;;;;;;;;;1.25;1.00;;;;;14.53;69.82;100344.09;6275996;22;45508;-69
2023/03/23 08:40:11;;;;;;;;;6.25;3.00;;;;;14.60;69.70;100357.13;6276947;22;46151;-69
2023/03/23 08:42:38;;;;;;;;;2.50;1.00;;;;;14.45;69.88;100331.97;6275743;22;45342;-69
2023/03/23 08:45:08;;;;;;;;;2.50;2.00;;;;;14.68;69.69;100369.28;6277855;22;45178;-69
2023/03/23 08:47:35;;;;;;;;;2.25;2.25;;;;;14.69;69.63;100363.81;6274786;22;45641;-68
2023/03/23 08:50:01;;;;;;;;;4.00;3.00;;;;;14.71;69.77;100367.28;6249340;22;47081;-69
2023/03/23 08:52:28;;;;;;;;;3.00;2.00;;;;;14.67;69.67;100351.41;6277569;22;45387;-69
2023/03/23 08:54:53;;;;;;;;;3.00;3.00;;;;;14.38;69.45;100306.41;6274926;22;45314;-69
2023/03/23 08:57:19;;;;;;;;;2.25;2.00;;;;;14.45;69.15;100317.69;6276841;22;45353;-69
2023/03/23 08:59:45;;;;;;;;;4.75;2.25;;;;;14.70;69.65;100376.31;6277536;22;45347;-69
2023/03/23 09:02:14;;;;;;;;;2.00;2.00;;;;;14.46;69.14;100322.94;6249176;22;45589;-69
2023/03/23 09:04:42;;;;;;;;;3.25;2.00;;;;;14.60;68.84;100343.72;6249367;22;45404;-69
2023/03/23 09:07:09;;;;;;;;;5.00;3.75;;;;;14.51;69.12;100328.06;6276390;22;45288;-69
2023/03/23 09:09:35;;;;;;;;;3.00;3.00;;;;;14.46;69.14;100324.75;6249412;22;47047;-69
2023/03/23 09:12:00;;;;;;;;;2.50;2.50;;;;;14.49;68.67;100342.53;6276241;22;45414;-69
2023/03/23 09:14:26;;;;;;;;;4.00;4.00;;;;;14.39;68.49;100329.59;6276426;22;45323;-69
2023/03/23 09:16:52;;;;;;;;;4.00;3.00;;;;;14.77;68.56;100383.06;6276656;22;45430;-69
2023/03/23 09:19:17;;;;;;;;;4.25;3.00;;;;;14.75;68.46;100376.91;6241640;22;47731;-69
2023/03/23 09:21:45;;;;;;;;;2.00;2.00;;;;;14.77;68.78;100366.09;6245074;22;45548;-69
2023/03/23 09:24:10;;;;;;;;;2.00;2.00;;;;;14.60;68.62;100324.91;6272554;22;45327;-69
2023/03/23 09:26:36;;;;;;;;;2.00;2.00;;;;;14.58;68.45;100315.16;6274380;22;45538;-69
2023/03/23 09:29:02;;;;;;;;;4.50;3.00;;;;;14.80;68.18;100356.03;6244587;22;47444;-69
2023/03/23 09:31:27;;;;;;;;;3.25;2.00;;;;;14.55;68.50;100301.88;6246541;22;45705;-69
2023/03/23 09:33:55;;;;;;;;;2.50;2.50;;;;;14.56;67.88;100293.75;6275659;22;45362;-70
2023/03/23 09:36:21;;;;;;;;;1.50;1.50;;;;;14.75;68.10;100330.34;6274138;22;45504;-69
2023/03/23 09:38:48;;;;;;;;;2.50;2.50;;;;;14.78;67.64;100347.19;6275626;22;46092;-70
2023/03/23 09:41:49;;;;;;;;;2.50;2.50;;;;;14.95;68.17;100374.91;6276103;22;45317;-69
2023/03/23 09:44:58;;;;;;;;;2.25;2.25;;;;;14.84;68.11;100353.19;6247948;22;45487;-69
2023/03/23 09:47:31;;;;;;;;;5.00;3.00;;;;;14.98;67.97;100374.75;6184872;22;45587;-69
2023/03/23 09:50:04;;;;;;;;;2.25;2.25;;;;;14.94;68.06;100374.06;6264760;22;45443;-69
2023/03/23 09:52:43;;;;;;;;;3.25;2.00;;;;;14.71;68.06;100332.34;6246914;22;45742;-69
2023/03/23 09:55:14;;;;;;;;;3.75;3.00;;;;;15.02;67.81;100379.00;6275145;22;45494;-69
2023/03/23 09:57:51;;;;;;;;;3.00;2.50;;;;;15.09;67.88;100382.22;6246913;22;45548;-71
2023/03/23 10:00:39;;;;;;;;;3.00;3.00;;;;;15.09;67.52;100391.13;6276219;22;45857;-75
2023/03/23 10:03:17;;;;;;;;;1.75;1.75;;;;;15.11;67.31;100381.16;6276245;22;45240;-71
2023/03/23 10:05:50;;;;;;;;;4.00;3.00;;;;;14.94;67.01;100343.63;6275992;22;45371;-73
2023/03/23 10:08:19;;;;;;;;;3.00;3.00;;;;;15.13;67.18;100360.41;6275787;22;45680;-72
2023/03/23 10:11:07;;;;;;;;;4.50;2.75;;;;;15.24;67.48;100356.28;6246067;22;48239;-70
2023/03/23 10:13:57;;;;;;;;;4.00;2.25;;;;;15.28;66.97;100368.56;6274214;22;45327;-69
2023/03/23 10:16:31;;;;;;;;;5.75;3.00;;;;;15.29;66.77;100373.84;6269559;22;45485;-69
2023/03/23 10:19:04;;;;;;;;;2.00;2.00;;;;;15.30;66.50;100361.28;6275043;22;45652;-69
2023/03/23 10:21:32;;;;;;;;;4.00;3.00;;;;;15.25;66.96;100350.81;6275257;22;45980;-70
2023/03/23 10:24:08;;;;;;;;;2.75;2.25;;;;;15.40;66.49;100369.69;6273383;22;45331;-69
2023/03/23 10:26:46;;;;;;;;;1.75;1.75;;;;;15.43;65.88;100380.25;6247794;22;45362;-69
2023/03/23 10:29:24;;;;;;;;;3.00;2.00;;;;;15.24;65.72;100343.69;6276390;22;45431;-69
2023/03/23 10:31:56;;;;;;;;;2.50;2.25;;;;;15.27;65.56;100342.63;6275339;22;45852;-70
2023/03/23 10:34:24;;;;;;;;;3.00;2.00;;;;;15.53;65.84;100362.63;6267567;22;45623;-70
2023/03/23 10:37:18;;;;;;;;;5.25;2.00;;;;;15.37;65.30;100320.50;6275627;22;45328;-70
2023/03/23 10:39:56;;;;;;;;;5.00;3.75;;;;;15.40;65.11;100329.34;6247559;22;45732;-70
2023/03/23 10:42:27;;;;;;;;;2.00;2.00;;;;;15.43;64.97;100340.78;6274923;22;45222;-70
2023/03/23 10:44:54;;;;;;;;;6.25;2.00;;;;;15.31;64.91;100334.28;6275252;22;45384;-69
2023/03/23 10:47:20;;;;;;;;;2.50;2.50;;;;;15.70;64.63;100375.06;6275551;22;45327;-70
2023/03/23 10:49:58;;;;;;;;;3.25;1.75;;;;;15.65;64.16;100342.19;6244397;22;45517;-69
2023/03/23 10:52:39;;;;;;;;;3.75;2.00;;;;;15.78;64.82;100350.44;6245919;22;47258;-72
2023/03/23 10:55:12;;;;;;;;;3.00;2.25;;;;;15.72;64.25;100365.97;6273786;22;45525;-73
2023/03/23 10:57:40;;;;;;;;;3.00;1.00;;;;;15.76;64.14;100355.91;6247457;22;45339;-71
2023/03/23 11:00:08;;;;;;;;;2.00;2.00;;;;;15.85;63.91;100363.41;6272405;22;45274;-70
2023/03/23 11:02:40;;;;;;;;;3.00;3.00;;;;;15.85;63.94;100343.72;6273490;22;45339;-69
2023/03/23 11:05:16;;;;;;;;;3.00;2.50;;;;;15.85;63.72;100328.41;6271653;22;45273;-70
2023/03/23 11:07:57;;;;;;;;;2.00;2.00;;;;;15.89;63.92;100332.66;6274657;22;45494;-70
2023/03/23 11:10:26;;;;;;;;;6.00;5.00;;;;;15.97;63.64;100345.66;6274250;22;45448;-70
2023/03/23 11:12:56;;;;;;;;;5.00;4.00;;;;;15.82;63.66;100320.56;6276166;22;45778;-70
2023/03/23 11:15:30;;;;;;;;;2.25;2.25;;;;;16.08;63.50;100361.16;6247776;22;45753;-70
2023/03/23 11:18:04;;;;;;;;;4.50;2.25;;;;;16.13;63.40;100363.56;6248476;22;45394;-70
2023/03/23 11:20:36;;;;;;;;;4.00;2.25;;;;;15.73;63.40;100305.78;6275046;22;45740;-70
2023/03/23 11:23:08;;;;;;;;;3.25;3.25;;;;;16.04;62.73;100349.72;6275482;22;45367;-70
2023/03/23 11:25:35;;;;;;;;;4.50;3.00;;;;;15.82;63.05;100300.81;6275781;22;45582;-70
2023/03/23 11:28:01;;;;;;;;;3.50;3.50;;;;;15.96;63.33;100302.69;6274338;22;45467;-70
2023/03/23 11:30:31;;;;;;;;;4.75;3.00;;;;;16.15;63.21;100348.19;6274728;22;45331;-70
2023/03/23 11:33:01;;;;;;;;;2.75;2.75;;;;;15.90;62.72;100307.50;6246215;22;46983;-69
2023/03/23 11:35:28;;;;;;;;;3.25;3.00;;;;;16.15;62.94;100340.09;6247431;22;45528;-69